Time;durP1;ratioP1;P1;durP2;ratioP2;P2;SDS_P1;SDS_P2;PMS_P1;PMS_P2;Temp;Humidity;BMP_temperature;BMP_pressure;BME280_temperature;BME280_humidity;BME280_pressure;Samples;Min_cycle;Max_cycle;Signal;HPM_P1;HPM_P2
2024/01/01 00:00:16;;;;;;;18.60;12.70;;;;;;;12.05;42.17;99567.63;108201;1255;71439;-70
2024/01/01 00:03:15;;;;;;;15.70;12.50;;;;;;;12.08;42.23;99558.01;108029;1252;60632;-69
2024/01/01 00:06:29;;;;;;;14.20;10.80;;;;;;;12.14;42.17;99555.59;108228;1254;60153;-68
2024/01/01 00:12:53;;;;;;;15.10;10.40;;;;;;;12.22;41.98;99554.83;108248;1254;69235;-67
2024/01/01 00:19:42;;;;;;;13.30;10.70;;;;;;;12.17;41.61;99548.98;108344;1252;61167;-68
2024/01/01 00:22:13;;;;;;;16.00;10.50;;;;;;;12.57;41.10;99545.34;108158;1254;59660;-67
2024/01/01 00:24:44;;;;;;;12.90;11.50;;;;;;;12.72;40.78;99552.44;108164;1254;72845;-67
2024/01/01 00:27:14;;;;;;;15.70;11.90;;;;;;;12.70;40.91;99539.34;108142;1253;69202;-68
2024/01/01 00:29:46;;;;;;;13.20;11.00;;;;;;;12.89;40.68;99539.93;108182;1253;72449;-68
2024/01/01 00:32:17;;;;;;;14.60;10.70;;;;;;;12.92;40.63;99544.70;108137;1254;60613;-68
2024/01/01 00:35:28;;;;;;;22.70;16.30;;;;;;;12.99;40.49;99549.77;108275;1253;58947;-68
2024/01/01 00:38:14;;;;;;;20.50;15.20;;;;;;;13.09;40.38;99546.38;108042;1253;72983;-69
2024/01/01 00:41:26;;;;;;;23.10;18.60;;;;;;;12.47;41.09;99543.91;108168;1253;69261;-68
2024/01/01 00:44:12;;;;;;;26.80;17.70;;;;;;;12.10;41.62;99537.72;108300;1253;72623;-68
2024/01/01 00:47:11;;;;;;;18.50;15.40;;;;;;;11.97;42.07;99524.13;108309;1253;61832;-68
2024/01/01 00:50:22;;;;;;;16.30;13.80;;;;;;;11.78;42.43;99514.69;107982;1253;60927;-70
2024/01/01 00:52:50;;;;;;;14.40;12.60;;;;;;;11.83;42.42;99523.58;107949;1252;72704;-68
2024/01/01 00:56:07;;;;;;;15.60;12.80;;;;;;;11.87;42.26;99517.43;107993;1254;69622;-68
2024/01/01 00:59:21;;;;;;;16.90;12.70;;;;;;;12.36;41.81;99507.38;107666;1254;72678;-64
2024/01/01 01:01:55;;;;;;;15.50;12.10;;;;;;;12.76;40.74;99507.39;107904;1254;60655;-68
2024/01/01 01:04:27;;;;;;;15.10;11.70;;;;;;;12.20;41.43;99511.86;108019;1255;59632;-68
2024/01/01 01:06:57;;;;;;;17.10;12.00;;;;;;;11.85;41.98;99508.75;107867;1255;74116;-67
2024/01/01 01:09:29;;;;;;;14.80;11.90;;;;;;;11.78;42.61;99509.60;107853;1254;70320;-67
2024/01/01 01:11:59;;;;;;;15.90;11.40;;;;;;;11.70;42.93;99505.44;107906;1254;72573;-66
2024/01/01 01:14:30;;;;;;;15.40;11.20;;;;;;;12.29;42.38;99502.06;107949;1256;60696;-67
2024/01/01 01:17:24;;;;;;;14.00;11.00;;;;;;;12.74;41.54;99504.16;108028;1253;60157;-66
2024/01/01 01:19:55;;;;;;;13.00;10.70;;;;;;;12.78;41.29;99516.42;107938;1258;73698;-66
2024/01/01 01:22:26;;;;;;;15.60;11.60;;;;;;;12.77;41.07;99517.68;107945;1255;69768;-65
2024/01/01 01:24:56;;;;;;;15.10;10.80;;;;;;;12.84;41.16;99519.60;107963;1254;72045;-66
2024/01/01 01:27:27;;;;;;;14.20;11.00;;;;;;;12.29;41.66;99524.64;107955;1257;59937;-67
2024/01/01 01:29:58;;;;;;;20.30;13.80;;;;;;;12.17;42.22;99521.56;107963;1254;60063;-67
2024/01/01 01:35:18;;;;;;;26.00;21.40;;;;;;;11.49;45.17;99509.64;101045;1305;618151;-65
2024/01/01 01:38:15;;;;;;;20.80;17.10;;;;;;;12.84;41.51;99487.05;103593;1279;61822;-65
2024/01/01 01:41:25;;;;;;;17.80;15.20;;;;;;;12.93;41.42;99494.13;103360;1276;59278;-65
2024/01/01 01:44:38;;;;;;;18.00;13.60;;;;;;;12.76;41.39;99491.52;103677;1269;72536;-69
2024/01/01 01:47:14;;;;;;;15.20;11.60;;;;;;;12.77;41.46;99482.71;103854;1281;70049;-66
2024/01/01 01:50:25;;;;;;;12.20;10.20;;;;;;;12.79;41.62;99486.83;104792;1257;198570;-66
2024/01/01 01:53:01;;;;;;;14.20;10.10;;;;;;;12.97;41.23;99487.08;104628;1257;60679;-66
2024/01/01 01:55:34;;;;;;;13.40;10.90;;;;;;;13.04;41.04;99474.67;104321;1261;59382;-66
2024/01/01 01:58:40;;;;;;;13.20;9.80;;;;;;;13.01;41.24;99470.63;103995;1279;72835;-65
2024/01/01 02:01:07;;;;;;;12.30;10.60;;;;;;;12.70;41.75;99473.39;104332;1268;70361;-65
2024/01/01 02:03:34;;;;;;;10.90;9.80;;;;;;;12.72;41.79;99462.08;104662;1261;72327;-65
2024/01/01 02:09:38;;;;;;;17.70;11.40;;;;;;;12.44;42.27;99457.04;104373;1263;60160;-65
2024/01/01 02:12:46;;;;;;;14.30;11.80;;;;;;;12.52;41.88;99456.42;104499;1260;71697;-65
2024/01/01 02:15:13;;;;;;;15.90;11.40;;;;;;;12.25;42.54;99450.84;104367;1275;70177;-66
2024/01/01 02:18:11;;;;;;;11.30;9.90;;;;;;;12.35;42.46;99448.89;105590;1257;72294;-67
2024/01/01 02:20:42;;;;;;;15.90;10.10;;;;;;;12.36;42.37;99441.30;104207;1260;60902;-66
2024/01/01 02:23:09;;;;;;;13.30;11.20;;;;;;;12.34;42.60;99434.54;108515;1256;60435;-67
2024/01/01 02:25:36;;;;;;;14.60;11.30;;;;;;;12.75;42.01;99430.94;107044;1255;72975;-64
2024/01/01 02:28:06;;;;;;;15.50;11.70;;;;;;;12.60;42.20;99433.14;105069;1255;68413;-66
2024/01/01 02:30:36;;;;;;;13.50;11.10;;;;;;;12.36;42.68;99427.59;105486;1251;73528;-66
2024/01/01 02:33:08;;;;;;;15.40;12.00;;;;;;;12.40;42.55;99425.11;108249;1257;60369;-67
2024/01/01 02:35:36;;;;;;;13.70;10.80;;;;;;;12.47;42.72;99420.48;108290;1257;59833;-66
2024/01/01 02:38:23;;;;;;;16.90;11.70;;;;;;;12.53;42.79;99423.85;105302;1254;72697;-66
2024/01/01 02:41:34;;;;;;;15.90;10.50;;;;;;;12.70;42.47;99420.67;104450;1257;69907;-65
2024/01/01 02:44:42;;;;;;;12.20;10.70;;;;;;;12.91;42.15;99412.61;104475;1264;73071;-66
2024/01/01 02:47:15;;;;;;;14.90;11.50;;;;;;;13.47;40.96;99400.11;104470;1274;60114;-66
2024/01/01 02:49:42;;;;;;;13.10;10.50;;;;;;;13.59;40.76;99391.88;104718;1254;60155;-66
2024/01/01 02:52:37;;;;;;;14.60;10.60;;;;;;;13.92;40.30;99387.08;104537;1254;73129;-66
2024/01/01 02:59:08;;;;;;;12.20;10.40;;;;;;;13.21;41.34;99384.54;104395;1256;72340;-66
2024/01/01 03:01:41;;;;;;;14.80;11.10;;;;;;;12.93;41.67;99375.20;104875;1257;61707;-66
2024/01/01 03:04:46;;;;;;;14.10;11.30;;;;;;;12.90;41.85;99364.14;104817;1256;60382;-66
2024/01/01 03:07:22;;;;;;;13.60;10.70;;;;;;;13.41;41.33;99356.42;104430;1256;71527;-66
2024/01/01 03:10:32;;;;;;;15.80;11.60;;;;;;;14.21;40.16;99355.14;104393;1266;68534;-65
2024/01/01 03:13:18;;;;;;;16.30;13.20;;;;;;;14.38;39.49;99343.17;104378;1271;71781;-66
2024/01/01 03:15:50;;;;;;;15.50;12.50;;;;;;;14.35;39.33;99350.77;104562;1256;61451;-66
2024/01/01 03:18:55;;;;;;;19.40;14.60;;;;;;;14.35;39.40;99342.48;104991;1254;59774;-66
2024/01/01 03:21:28;;;;;;;18.90;13.80;;;;;;;14.39;39.37;99343.77;104557;1257;73291;-67
2024/01/01 03:23:58;;;;;;;17.80;12.90;;;;;;;14.39;39.17;99340.95;104429;1271;69939;-65
2024/01/01 03:26:28;;;;;;;16.60;12.40;;;;;;;14.44;39.26;99340.70;107607;1253;72360;-67
2024/01/01 03:28:56;;;;;;;17.90;12.70;;;;;;;14.55;39.13;99338.39;104967;1260;60973;-65
2024/01/01 03:31:22;;;;;;;;;;;;;;;14.54;39.15;99337.55;105112;1254;60211;-66
2024/01/01 03:33:55;;;;;;;9.30;8.40;;;;;;;14.58;39.01;99341.23;104518;1260;73636;-65
2024/01/01 03:36:25;;;;;;;17.70;13.30;;;;;;;14.55;39.02;99340.00;106175;1254;69663;-66
2024/01/01 03:43:17;;;;;;;16.10;12.00;;;;;;;14.54;39.06;99325.89;104535;1259;60760;-64
2024/01/01 03:46:30;;;;;;;17.00;13.10;;;;;;;14.53;39.17;99320.86;104851;1254;59823;-65
2024/01/01 03:48:57;;;;;;;17.80;12.70;;;;;;;14.29;39.52;99314.30;104497;1257;73169;-64
2024/01/01 03:51:30;;;;;;;17.40;12.10;;;;;;;14.25;39.56;99307.00;104493;1256;69913;-64
2024/01/01 03:54:44;;;;;;;16.90;13.20;;;;;;;13.81;40.07;99310.76;104504;1255;73593;-65
2024/01/01 03:57:17;;;;;;;19.20;15.00;;;;;;;14.12;39.61;99310.77;104598;1254;60735;-65
2024/01/01 04:00:18;;;;;;;20.60;14.50;;;;;;;14.01;39.81;99304.24;104506;1255;59750;-65
2024/01/01 04:03:29;;;;;;;19.20;14.00;;;;;;;13.87;39.88;99301.94;104562;1261;73976;-65
2024/01/01 04:06:40;;;;;;;17.40;14.10;;;;;;;13.34;40.61;99305.65;104549;1258;68378;-62
2024/01/01 04:13:15;;;;;;;17.70;14.50;;;;;;;13.45;40.66;99281.92;104610;1259;60689;-65
2024/01/01 04:15:42;;;;;;;17.60;13.60;;;;;;;13.48;40.72;99275.76;104438;1256;60257;-65
2024/01/01 04:18:18;;;;;;;18.10;14.70;;;;;;;13.53;40.64;99273.55;104451;1258;73626;-64
2024/01/01 04:21:29;;;;;;;15.20;13.60;;;;;;;13.58;40.63;99271.32;104982;1255;70190;-64
2024/01/01 04:23:59;;;;;;;17.60;13.50;;;;;;;13.52;40.62;99265.13;104472;1254;72738;-63
2024/01/01 04:26:28;;;;;;;16.60;12.90;;;;;;;13.42;40.87;99268.92;105515;1252;59844;-64
2024/01/01 04:28:56;;;;;;;17.00;13.70;;;;;;;13.50;40.83;99268.61;105097;1264;60078;-64
2024/01/01 04:31:23;;;;;;;;;;;;;;;13.53;40.88;99265.94;104575;1261;72742;-65
2024/01/01 04:33:53;;;;;;;21.10;13.60;;;;;;;13.42;41.08;99265.72;104925;1267;70795;-64
2024/01/01 04:36:22;;;;;;;15.20;12.30;;;;;;;13.41;41.03;99261.06;104802;1257;73074;-64
2024/01/01 04:39:33;;;;;;;13.70;11.50;;;;;;;13.39;41.24;99258.02;105415;1251;62238;-64
2024/01/01 04:42:44;;;;;;;16.20;11.90;;;;;;;12.82;42.13;99249.92;104372;1256;59804;-64
2024/01/01 04:45:18;;;;;;;14.10;12.30;;;;;;;12.67;42.58;99247.06;104567;1254;73237;-65
2024/01/01 04:47:45;;;;;;;18.30;12.80;;;;;;;12.52;42.77;99242.15;105074;1257;69242;-65
2024/01/01 04:53:48;;;;;;;16.80;12.70;;;;;;;12.62;42.57;99236.98;107249;1251;60939;-64
2024/01/01 04:56:21;;;;;;;20.30;12.60;;;;;;;12.67;42.63;99234.61;106149;1252;60389;-65
2024/01/01 04:58:48;;;;;;;15.50;11.40;;;;;;;12.60;42.53;99233.94;108153;1251;72747;-65
2024/01/01 05:01:14;;;;;;;15.60;11.30;;;;;;;12.49;43.04;99229.50;106626;1251;68729;-66
2024/01/01 05:03:41;;;;;;;17.00;11.20;;;;;;;12.57;42.96;99219.71;108488;1251;74028;-65
2024/01/01 05:06:11;;;;;;;13.90;11.40;;;;;;;12.63;42.87;99217.44;108476;1251;61200;-65
2024/01/01 05:09:22;;;;;;;20.00;11.60;;;;;;;12.67;42.93;99214.36;105468;1256;59941;-66
2024/01/01 05:11:49;;;;;;;15.70;11.80;;;;;;;13.00;42.45;99202.60;104496;1254;73202;-65
2024/01/01 05:14:47;;;;;;;14.40;11.90;;;;;;;12.73;42.62;99204.52;104798;1252;70718;-65
2024/01/01 05:17:20;;;;;;;16.20;11.80;;;;;;;12.66;42.59;99202.45;104494;1257;71579;-64
2024/01/01 05:19:53;;;;;;;16.00;12.10;;;;;;;12.60;42.69;99203.70;104540;1257;61039;-64
2024/01/01 05:23:17;;;;;;;13.70;11.70;;;;;;;12.50;42.96;99202.35;104987;1252;60833;-64
2024/01/01 05:25:43;;;;;;;15.60;12.50;;;;;;;12.43;43.00;99205.91;104480;1270;73757;-65
2024/01/01 05:28:14;;;;;;;16.10;12.90;;;;;;;12.40;43.11;99203.98;107813;1252;69394;-63
2024/01/01 05:30:44;;;;;;;15.40;12.10;;;;;;;12.27;43.52;99201.21;105075;1257;73251;-65
2024/01/01 05:33:11;;;;;;;17.30;13.20;;;;;;;12.34;43.24;99201.16;105392;1257;60885;-65
2024/01/01 05:35:39;;;;;;;17.40;12.20;;;;;;;12.38;43.43;99205.65;104832;1256;60397;-67
2024/01/01 05:38:09;;;;;;;15.10;11.50;;;;;;;12.44;43.27;99205.69;105368;1254;72629;-65
2024/01/01 05:41:20;;;;;;;16.80;12.60;;;;;;;12.48;43.27;99206.12;105196;1252;69211;-65
2024/01/01 05:55:59;;;;;;;15.70;12.40;;;;;;;12.73;42.42;99205.74;104308;1271;73318;-66
2024/01/01 05:59:17;;;;;;;17.40;11.90;;;;;;;12.49;42.75;99209.27;104856;1256;69911;-64
2024/01/01 06:01:50;;;;;;;15.60;12.40;;;;;;;12.20;43.03;99205.44;104330;1254;73064;-65
2024/01/01 06:08:06;;;;;;;15.10;11.70;;;;;;;12.15;43.61;99214.19;105501;1253;60247;-64
2024/01/01 06:15:37;;;;;;;15.10;11.10;;;;;;;12.31;43.56;99209.42;104622;1257;70706;-68
2024/01/01 06:18:48;;;;;;;13.80;11.40;;;;;;;12.37;43.54;99205.92;104395;1276;72965;-67
2024/01/01 06:21:30;;;;;;;14.50;10.90;;;;;;;12.45;43.34;99198.89;104507;1254;61022;-67
2024/01/01 06:23:57;;;;;;;13.20;10.50;;;;;;;12.45;43.36;99199.27;105357;1253;60581;-73
2024/01/01 06:26:28;;;;;;;14.30;11.10;;;;;;;12.49;43.41;99202.23;105812;1253;73641;-75
2024/01/01 06:28:55;;;;;;;13.60;10.90;;;;;;;12.48;43.60;99196.48;106881;1254;69184;-71
2024/01/01 06:31:22;;;;;;;13.90;11.30;;;;;;;12.47;43.65;99194.98;105485;1257;71435;-69
2024/01/01 06:33:52;;;;;;;15.30;11.40;;;;;;;12.71;43.58;99195.85;105688;1253;60560;-66
2024/01/01 06:36:21;;;;;;;16.30;11.20;;;;;;;12.73;43.37;99190.27;104796;1256;60903;-63
2024/01/01 06:38:48;;;;;;;15.00;12.10;;;;;;;12.71;43.52;99186.17;104753;1254;73103;-68
2024/01/01 06:41:21;;;;;;;15.00;11.60;;;;;;;12.73;43.56;99181.63;104829;1255;70094;-72
2024/01/01 06:43:48;;;;;;;15.10;12.00;;;;;;;12.77;43.51;99179.52;104889;1257;72484;-67
2024/01/01 06:46:37;;;;;;;15.50;11.80;;;;;;;12.78;43.54;99179.60;105413;1253;60549;-65
2024/01/01 06:53:17;;;;;;;15.10;11.80;;;;;;;12.75;43.51;99159.23;104940;1254;74159;-67
2024/01/01 06:55:50;;;;;;;15.70;12.20;;;;;;;13.21;43.10;99158.57;105483;1254;69118;-64
2024/01/01 07:01:53;;;;;;;16.00;12.20;;;;;;;13.61;42.19;99152.27;104977;1267;61056;-65
2024/01/01 07:05:07;;;;;;;13.70;11.10;;;;;;;13.60;42.03;99144.39;105168;1254;60525;-65
2024/01/01 07:07:40;;;;;;;16.40;12.30;;;;;;;13.66;42.01;99140.64;104894;1257;73454;-63
2024/01/01 07:10:51;;;;;;;17.50;11.40;;;;;;;13.80;41.89;99135.02;105204;1260;70353;-64
2024/01/01 07:13:25;;;;;;;13.60;11.20;;;;;;;13.90;41.67;99130.15;104917;1254;71532;-63
2024/01/01 07:15:51;;;;;;;15.40;11.10;;;;;;;13.73;41.87;99126.82;105154;1253;60716;-65
2024/01/01 07:18:21;;;;;;;13.80;10.90;;;;;;;13.75;41.93;99124.56;108278;1253;59722;-64
2024/01/01 07:20:49;;;;;;;13.50;10.80;;;;;;;13.83;41.93;99124.07;107222;1254;73943;-64
2024/01/01 07:23:15;;;;;;;13.10;10.60;;;;;;;13.37;42.67;99124.30;105838;1253;69126;-65
2024/01/01 07:25:42;;;;;;;13.90;10.40;;;;;;;13.14;43.28;99120.33;106091;1254;72743;-64
2024/01/01 07:28:13;;;;;;;15.00;11.00;;;;;;;13.22;43.15;99120.33;108021;1254;62085;-65
2024/01/01 07:30:43;;;;;;;12.40;10.30;;;;;;;13.32;43.10;99118.30;108132;1252;60293;-65
2024/01/01 07:33:09;;;;;;;13.40;10.90;;;;;;;13.23;43.32;99107.05;106468;1253;74148;-63
2024/01/01 07:35:36;;;;;;;14.30;11.10;;;;;;;13.26;43.34;99104.95;104442;1256;69846;-64
2024/01/01 07:38:07;;;;;;;14.30;11.00;;;;;;;13.33;43.40;99097.66;105094;1256;72796;-64
2024/01/01 07:41:18;;;;;;;15.50;10.10;;;;;;;13.27;43.48;99088.48;105019;1256;60610;-63
2024/01/01 07:43:45;;;;;;;13.50;9.30;;;;;;;13.38;43.44;99088.21;104792;1257;60466;-65
2024/01/01 07:46:53;;;;;;;12.10;9.40;;;;;;;13.39;43.62;99090.95;104707;1254;73757;-64
2024/01/01 07:49:28;;;;;;;12.20;9.60;;;;;;;13.46;43.43;99082.56;105127;1257;70341;-67
2024/01/01 07:52:39;;;;;;;12.20;9.50;;;;;;;13.40;43.50;99082.80;104878;1254;72517;-62
2024/01/01 07:55:50;;;;;;;12.90;9.60;;;;;;;13.73;43.32;99078.05;104672;1261;61149;-63
2024/01/01 07:58:54;;;;;;;13.20;9.70;;;;;;;13.55;43.69;99078.00;104533;1260;60561;-64
2024/01/01 08:01:27;;;;;;;14.20;9.90;;;;;;;13.52;43.83;99079.76;104563;1257;74762;-68
2024/01/01 08:04:38;;;;;;;11.70;9.10;;;;;;;13.61;43.67;99078.47;105041;1254;69138;-66
2024/01/01 08:07:17;;;;;;;10.50;9.10;;;;;;;13.69;43.65;99076.34;105248;1254;71760;-64
2024/01/01 08:09:44;;;;;;;13.10;9.90;;;;;;;13.76;43.50;99071.35;104682;1254;60747;-64
2024/01/01 08:12:55;;;;;;;12.40;9.40;;;;;;;13.92;43.50;99071.69;104964;1254;60834;-67
2024/01/01 08:15:22;;;;;;;11.70;9.80;;;;;;;14.17;43.24;99071.61;104608;1260;73851;-66
2024/01/01 08:18:17;;;;;;;10.80;8.70;;;;;;;13.94;43.65;99066.63;105128;1255;69261;-62
2024/01/01 08:20:54;;;;;;;12.60;9.60;;;;;;;14.05;43.82;99063.58;105045;1253;72323;-63
2024/01/01 08:23:21;;;;;;;10.80;9.60;;;;;;;13.89;44.00;99059.73;104934;1253;60735;-66
2024/01/01 08:25:48;;;;;;;11.50;9.60;;;;;;;14.08;43.84;99055.13;105929;1254;60453;-66
2024/01/01 08:28:18;;;;;;;13.00;10.00;;;;;;;14.23;43.64;99047.08;105129;1254;73650;-65
2024/01/01 08:30:48;;;;;;;10.60;9.00;;;;;;;14.19;43.92;99040.63;108256;1253;69201;-63
2024/01/01 08:33:16;;;;;;;12.50;9.60;;;;;;;14.24;44.04;99036.44;107386;1253;72211;-63
2024/01/01 08:35:43;;;;;;;13.60;9.90;;;;;;;14.27;43.97;99033.23;105195;1254;60637;-63
2024/01/01 08:38:13;;;;;;;12.30;10.50;;;;;;;14.56;43.72;99033.77;106330;1253;60561;-62
2024/01/01 08:40:43;;;;;;;14.00;9.80;;;;;;;14.76;43.43;99026.77;107137;1253;74462;-62
2024/01/01 08:43:09;;;;;;;10.40;8.90;;;;;;;14.46;43.86;99035.30;105690;1255;70222;-62
2024/01/01 08:45:43;;;;;;;13.90;9.80;;;;;;;14.22;44.43;99040.23;104864;1260;72852;-65
2024/01/01 08:48:17;;;;;;;11.70;10.00;;;;;;;14.20;44.67;99028.63;105304;1253;61096;-64
2024/01/01 08:51:28;;;;;;;13.60;9.80;;;;;;;14.09;44.79;99023.70;104868;1258;60495;-64
2024/01/01 08:58:06;;;;;;;14.40;10.40;;;;;;;14.80;43.80;99006.73;104852;1253;69987;-64
2024/01/01 09:01:06;;;;;;;11.60;10.10;;;;;;;14.54;44.21;99006.89;104544;1273;73121;-64
2024/01/01 09:03:33;;;;;;;11.80;9.20;;;;;;;14.64;44.22;98999.52;108338;1253;60824;-64
2024/01/01 09:06:03;;;;;;;10.90;9.80;;;;;;;14.73;43.95;99003.70;107720;1254;60208;-64
2024/01/01 09:08:33;;;;;;;13.40;12.00;;;;;;;14.72;44.09;98999.52;104604;1264;74235;-64
2024/01/01 09:11:02;;;;;;;13.60;11.10;;;;;;;15.07;43.50;98991.38;105401;1253;69461;-63
2024/01/01 09:13:30;;;;;;;12.40;10.80;;;;;;;15.17;43.52;98992.96;104719;1257;73135;-63
2024/01/01 09:15:59;;;;;;;12.80;10.80;;;;;;;15.80;42.31;98992.95;105447;1254;60559;-64
2024/01/01 09:18:59;;;;;;;12.30;10.60;;;;;;;15.87;42.03;98995.80;104700;1256;60564;-64
2024/01/01 09:21:33;;;;;;;13.60;11.00;;;;;;;15.99;41.87;98986.10;104463;1257;73480;-64
2024/01/01 09:24:01;;;;;;;12.10;10.80;;;;;;;15.90;41.98;98972.42;104779;1253;68214;-64
2024/01/01 09:26:40;;;;;;;12.00;10.60;;;;;;;15.62;42.30;98969.41;104836;1254;73106;-65
2024/01/01 09:29:06;;;;;;;13.50;10.50;;;;;;;15.71;42.16;98959.14;104629;1257;60542;-63
2024/01/01 09:31:35;;;;;;;13.10;11.40;;;;;;;15.97;42.18;98953.88;104588;1253;59800;-62
2024/01/01 09:34:06;;;;;;;11.80;10.60;;;;;;;15.82;42.04;98946.38;104436;1254;73948;-64
2024/01/01 09:36:46;;;;;;;11.50;10.30;;;;;;;15.81;42.11;98946.77;104737;1255;69270;-63
2024/01/01 09:43:23;;;;;;;15.30;10.10;;;;;;;15.85;41.72;98948.08;104543;1254;60717;-64
2024/01/01 09:45:52;;;;;;;11.90;10.30;;;;;;;15.68;42.07;98944.88;104774;1256;60541;-70
2024/01/01 09:48:56;;;;;;;12.40;10.40;;;;;;;15.43;42.62;98942.86;105021;1253;74330;-66
2024/01/01 09:51:29;;;;;;;12.60;10.40;;;;;;;16.11;41.55;98935.69;104582;1256;69407;-70
2024/01/01 09:54:02;;;;;;;15.90;11.80;;;;;;;16.24;41.30;98928.51;104535;1257;72811;-68
2024/01/01 09:57:13;;;;;;;14.30;12.80;;;;;;;16.12;41.52;98918.46;104507;1257;61292;-69
2024/01/01 09:59:46;;;;;;;16.80;14.90;;;;;;;15.94;41.79;98918.08;104695;1257;60534;-71
2024/01/01 10:03:00;;;;;;;16.30;13.80;;;;;;;15.86;41.91;98914.30;104629;1255;73418;-68
2024/01/01 10:05:34;;;;;;;13.00;11.70;;;;;;;15.92;41.80;98916.98;104578;1255;69929;-70
2024/01/01 10:08:17;;;;;;;15.20;11.40;;;;;;;15.86;41.83;98918.30;104829;1257;72357;-70
2024/01/01 10:11:28;;;;;;;14.50;11.60;;;;;;;15.84;41.91;98921.81;104851;1257;61003;-70
2024/01/01 10:14:02;;;;;;;12.40;10.70;;;;;;;15.98;41.68;98914.17;104829;1257;60403;-64
2024/01/01 10:16:33;;;;;;;11.80;10.20;;;;;;;15.85;42.07;98904.96;107195;1253;72331;-66
2024/01/01 10:19:01;;;;;;;12.50;10.00;;;;;;;15.94;41.87;98900.41;107939;1253;69274;-65
2024/01/01 10:21:34;;;;;;;11.70;10.40;;;;;;;15.92;42.07;98900.70;105421;1257;72374;-64
2024/01/01 10:24:58;;;;;;;11.40;10.20;;;;;;;15.90;42.08;98899.95;105098;1255;61019;-64
2024/01/01 10:27:44;;;;;;;10.90;9.80;;;;;;;16.09;41.83;98892.91;104546;1252;60603;-64
2024/01/01 10:31:02;;;;;;;13.70;10.50;;;;;;;16.20;41.58;98875.20;104755;1257;74259;-64
2024/01/01 10:33:32;;;;;;;11.50;10.00;;;;;;;16.33;41.32;98866.23;104676;1260;70359;-66
2024/01/01 10:40:14;;;;;;;10.60;9.50;;;;;;;16.23;41.33;98864.35;104682;1258;60641;-66
2024/01/01 10:43:31;;;;;;;13.80;11.30;;;;;;;16.14;41.36;98871.95;104623;1254;62114;-65
2024/01/01 10:46:04;;;;;;;12.80;10.10;;;;;;;16.12;41.36;98865.29;104854;1256;73573;-66
2024/01/01 10:49:25;;;;;;;12.70;10.10;;;;;;;16.20;41.18;98846.08;104460;1262;70388;-65
2024/01/01 10:52:11;;;;;;;11.90;9.90;;;;;;;16.46;40.93;98844.16;104958;1256;71898;-65
2024/01/01 10:55:13;;;;;;;12.30;11.00;;;;;;;16.89;40.28;98840.41;105644;1255;60470;-65
2024/01/01 10:58:01;;;;;;;14.40;12.20;;;;;;;16.34;40.82;98836.27;105788;1253;59930;-63
2024/01/01 11:04:50;;;;;;;12.60;10.40;;;;;;;16.38;41.00;98829.56;104653;1256;70160;-67
2024/01/01 11:08:02;;;;;;;12.60;10.90;;;;;;;16.37;40.91;98826.47;105253;1253;72292;-67
2024/01/01 11:10:58;;;;;;;12.10;10.70;;;;;;;16.36;40.93;98821.64;104835;1253;60694;-66
2024/01/01 11:14:08;;;;;;;15.10;11.50;;;;;;;16.25;40.93;98813.31;104446;1253;60512;-67
2024/01/01 11:20:44;;;;;;;11.90;10.30;;;;;;;16.28;40.94;98800.64;104646;1253;70478;-68
2024/01/01 11:23:44;;;;;;;12.60;10.90;;;;;;;16.53;40.69;98787.70;105208;1252;72761;-67
2024/01/01 11:26:26;;;;;;;12.80;11.50;;;;;;;16.45;40.72;98782.53;105327;1254;61012;-70
2024/01/01 11:28:58;;;;;;;13.80;11.70;;;;;;;16.62;40.50;98774.05;106277;1253;60536;-65
2024/01/01 11:31:26;;;;;;;16.20;12.10;;;;;;;16.50;40.63;98777.53;105794;1253;74085;-67
2024/01/01 11:34:06;;;;;;;12.10;10.80;;;;;;;16.45;40.76;98767.30;107118;1253;68404;-68
2024/01/01 11:36:50;;;;;;;13.50;11.60;;;;;;;16.45;40.77;98764.80;104712;1262;72867;-67
2024/01/01 11:39:21;;;;;;;14.50;11.80;;;;;;;16.43;40.94;98759.50;104449;1258;60638;-66
2024/01/01 11:41:48;;;;;;;14.20;11.60;;;;;;;16.44;40.80;98754.17;105326;1253;60454;-67
2024/01/01 11:44:59;;;;;;;13.90;11.30;;;;;;;16.46;40.86;98747.79;105702;1253;74455;-65
2024/01/01 11:47:45;;;;;;;12.60;11.20;;;;;;;16.46;40.84;98751.32;104619;1252;69611;-67
2024/01/01 11:50:59;;;;;;;12.40;10.80;;;;;;;16.43;40.85;98745.35;104951;1258;72414;-66
2024/01/01 11:53:26;;;;;;;10.30;9.30;;;;;;;16.39;40.95;98741.11;104809;1253;61149;-67
2024/01/01 11:56:07;;;;;;;12.70;11.40;;;;;;;16.50;40.79;98740.77;104592;1254;60880;-65
2024/01/01 12:03:22;;;;;;;14.00;11.40;;;;;;;16.30;41.01;98727.81;104745;1255;70163;-65
2024/01/01 12:06:03;;;;;;;14.20;11.60;;;;;;;16.54;40.61;98722.77;104654;1255;72271;-65
2024/01/01 12:09:02;;;;;;;13.60;11.90;;;;;;;16.45;40.67;98726.50;105107;1256;60751;-65
2024/01/01 12:11:42;;;;;;;13.00;11.70;;;;;;;16.27;40.97;98736.08;105018;1253;60561;-68
2024/01/01 12:14:56;;;;;;;12.10;10.90;;;;;;;16.26;41.10;98733.45;105138;1255;74563;-69
2024/01/01 12:18:19;;;;;;;14.00;11.40;;;;;;;16.29;40.90;98731.30;105233;1252;68821;-68
2024/01/01 12:21:30;;;;;;;15.10;12.30;;;;;;;16.20;41.06;98717.71;104977;1254;71775;-68
2024/01/01 12:24:05;;;;;;;14.10;11.90;;;;;;;16.01;41.36;98716.91;104712;1253;61582;-68
2024/01/01 12:26:38;;;;;;;13.50;11.40;;;;;;;16.21;41.19;98711.98;104523;1252;60562;-69
2024/01/01 12:29:22;;;;;;;14.00;12.10;;;;;;;16.23;41.01;98708.94;104642;1253;73536;-68
2024/01/01 12:31:49;;;;;;;18.80;14.30;;;;;;;16.37;40.87;98704.14;107422;1253;70517;-67
2024/01/01 12:34:35;;;;;;;14.70;12.90;;;;;;;16.24;40.98;98707.10;104845;1252;72860;-67
2024/01/01 12:37:02;;;;;;;14.10;12.60;;;;;;;16.04;41.35;98701.08;105221;1257;60886;-67
2024/01/01 12:39:29;;;;;;;13.40;11.20;;;;;;;16.06;41.40;98693.56;106656;1255;60436;-69
2024/01/01 12:41:55;;;;;;;15.30;11.40;;;;;;;15.95;41.51;98683.13;104858;1253;74428;-67
2024/01/01 12:44:25;;;;;;;13.40;12.00;;;;;;;16.00;41.50;98683.63;108380;1253;69660;-68
2024/01/01 12:46:55;;;;;;;15.70;13.60;;;;;;;16.08;41.43;98681.37;108340;1253;73525;-68
2024/01/01 12:49:22;;;;;;;14.60;13.00;;;;;;;16.12;41.42;98672.86;108216;1253;60974;-68
2024/01/01 12:51:50;;;;;;;16.40;12.40;;;;;;;16.16;41.51;98668.70;108296;1252;60124;-68
2024/01/01 12:55:03;;;;;;;13.10;11.70;;;;;;;16.10;41.65;98663.83;104993;1253;74438;-69
2024/01/01 12:57:36;;;;;;;13.80;11.90;;;;;;;16.16;41.73;98661.61;104628;1257;70027;-69
2024/01/01 13:00:10;;;;;;;13.70;10.90;;;;;;;16.12;41.53;98657.66;104554;1275;73074;-68
2024/01/01 13:03:18;;;;;;;12.90;10.70;;;;;;;16.16;41.52;98661.96;104837;1275;61089;-67
2024/01/01 13:05:51;;;;;;;14.80;12.00;;;;;;;16.22;41.34;98669.80;105224;1255;60863;-67
2024/01/01 13:09:08;;;;;;;13.20;11.70;;;;;;;16.59;40.83;98670.27;105699;1253;73783;-67
2024/01/01 13:11:42;;;;;;;14.70;13.00;;;;;;;17.03;39.96;98668.98;105035;1257;69848;-64
2024/01/01 13:14:15;;;;;;;17.80;13.30;;;;;;;16.53;40.47;98669.02;104636;1269;72196;-68
2024/01/01 13:17:03;;;;;;;28.50;25.60;;;;;;;16.43;40.74;98667.57;104786;1254;61578;-66
2024/01/01 13:19:36;;;;;;;17.00;15.20;;;;;;;16.37;40.94;98673.02;104720;1257;60069;-65
2024/01/01 13:22:18;;;;;;;17.20;13.10;;;;;;;16.36;41.03;98673.59;105132;1256;72390;-65
2024/01/01 13:24:51;;;;;;;15.60;12.60;;;;;;;16.33;40.99;98670.30;104858;1254;69665;-67
2024/01/01 13:28:02;;;;;;;16.10;13.10;;;;;;;16.42;40.88;98668.54;105240;1256;73472;-67
2024/01/01 13:30:54;;;;;;;25.40;21.90;;;;;;;16.34;41.02;98670.55;104756;1257;61342;-67
2024/01/01 13:33:22;;;;;;;36.70;28.30;;;;;;;16.37;41.00;98666.09;104312;1253;60496;-65
2024/01/01 13:35:49;;;;;;;22.90;19.00;;;;;;;16.51;40.74;98667.97;105354;1254;74189;-65
2024/01/01 13:38:18;;;;;;;22.90;17.80;;;;;;;16.43;40.77;98662.06;104824;1257;70330;-68
2024/01/01 13:41:34;;;;;;;24.60;20.10;;;;;;;16.35;41.05;98662.05;104585;1257;72226;-65